Latest Coastal Weather Observations for Townsville

IDQ60701

Issued at 10:21 am EST Tuesday 26 May 2020 (issued every 10 minutes, with the page automatically refreshed every 10 minutes)

About coastal observations | Map of coastal stations | Coastal observations for QLD | Marine services | Other Formats
Station Details ID: 032040 Name: TOWNSVILLE AERO Lat: -19.25 Lon: 146.77 Height: 4.34 m
Data from the previous 72 hours. | See also: Recent months at Townsville
Date/Time
EST
Wind Sea
Height
m
Swell Vis
km
Cloud Weather Temp
°C
Press
hPa
Rain since
9am
mm
Dir  Spd
kts
Gust
kts
Height
m
Period
s
Dir
26/10:00am WSW 2 4 - - - - 10 - - 20.4 1020.7 0.0
26/09:30am CALM 0 0 - - - - 10 - - 19.1 1020.6 0.0
26/09:00am CALM 0 0 - - - - 10 - - 17.3 1020.6 0.0
26/08:30am CALM 0 0 - - - - 10 - - 15.9 1020.3 0.0
26/08:00am CALM 0 0 - - - - 10 - - 14.1 1020.0 0.0
26/07:30am CALM 0 0 - - - - 10 - - 12.5 1019.8 0.0
26/07:00am CALM 0 0 - - - - 10 - - 11.2 1019.5 0.0
26/06:30am CALM 0 0 - - - - 10 - Shallow fog 10.8 1019.3 0.0
26/06:00am CALM 0 0 - - - - 10 - - 10.7 1019.1 0.0
26/05:30am NW 1 3 - - - - 10 - - 10.4 1018.8 0.0
26/05:00am NW 2 4 - - - - 10 - - 10.8 1018.5 0.0
26/04:30am CALM 0 0 - - - - 10 - - 10.5 1018.3 0.0
26/04:00am CALM 0 0 - - - - 10 - - 10.7 1018.3 0.0
26/03:30am CALM 0 0 - - - - 10 - - 10.8 1018.2 0.0
26/03:00am CALM 0 0 - - - - 10 - - 10.8 1018.3 0.0
26/02:30am NW 2 4 - - - - 10 - - 10.9 1018.6 0.0
26/02:00am WSW 3 5 - - - - 10 - - 11.3 1018.6 0.0
26/01:30am CALM 0 0 - - - - 10 - - 11.6 1018.6 0.0
26/01:00am CALM 0 0 - - - - 10 - - 11.6 1018.7 0.0
26/12:30am CALM 0 0 - - - - 10 - - 11.8 1018.9 0.0
26/12:00am CALM 0 0 - - - - 10 - - 12.2 1019.0 0.0
 
Date/Time
EST
Wind Sea
Height
m
Swell Vis
km
Cloud Weather Temp
°C
Press
hPa
Rain since
9am
mm
Dir  Spd
kts
Gust
kts
Height
m
Period
s
Dir
25/11:30pm CALM 0 0 - - - - 10 - - 12.6 1019.3 0.0
25/11:00pm CALM 0 0 - - - - 10 - - 13.2 1019.2 0.0
25/10:30pm CALM 0 0 - - - - 10 - - 13.6 1019.2 0.0
25/10:00pm CALM 0 0 - - - - 10 - - 14.2 1019.3 0.0
25/09:30pm SSW 4 5 - - - - 10 - - 15.4 1019.3 0.0
25/09:00pm SSW 5 6 - - - - 10 - - 16.2 1019.3 0.0
25/08:30pm CALM 0 0 - - - - 10 - - 14.8 1019.1 0.0
25/08:00pm CALM 0 0 - - - - 10 - - 14.9 1018.7 0.0
25/07:30pm CALM 0 3 - - - - 10 - - 15.2 1018.2 0.0
25/07:00pm WNW 4 4 - - - - 10 - - 16.0 1017.8 0.0
25/06:30pm WNW 4 5 - - - - 10 - - 16.4 1017.3 0.0
25/06:00pm NW 3 5 - - - - 10 - - 17.4 1016.8 0.0
25/05:30pm NW 5 6 - - - - 10 - - 19.2 1016.6 0.0
25/05:00pm NE 3 5 - - - - 10 - - 20.9 1016.4 0.0
25/04:30pm ENE 6 8 - - - - 10 - - 21.1 1016.2 0.0
25/04:00pm ENE 7 9 - - - - 10 - - 21.4 1016.1 0.0
25/03:30pm NE 8 11 - - - - 10 - - 21.5 1016.1 0.0
25/03:00pm NE 10 13 - - - - 10 - - 21.3 1016.0 0.0
25/02:30pm NE 10 15 - - - - 10 - - 21.4 1016.3 0.0
25/02:00pm NE 12 15 - - - - 10 - - 21.3 1016.5 0.0
25/01:30pm NE 11 14 - - - - 10 - - 21.8 1016.8 0.0
25/01:00pm NE 8 10 - - - - 10 - - 21.7 1017.6 0.0
25/12:30pm W 4 7 - - - - 10 - - 22.3 1018.1 0.0
25/12:00pm SSW 7 14 - - - - 10 - - 22.0 1018.4 0.0
25/11:30am SE 7 10 - - - - 10 - - 21.4 1018.7 0.0
25/11:00am SSE 8 11 - - - - 10 - - 20.8 1018.8 0.0
25/10:30am SW 10 15 - - - - 10 - - 20.5 1019.3 0.0
25/10:00am SSW 10 14 - - - - 10 - - 20.0 1019.4 0.0
25/09:30am SW 8 11 - - - - 10 - - 18.9 1019.4 0.0
25/09:00am SW 6 9 - - - - 10 Mostly clear - 18.2 1019.2 0.0
25/08:30am WSW 7 9 - - - - 10 Mostly clear - 17.2 1019.0 0.0
25/08:00am W 6 7 - - - - 10 Mostly clear - 15.6 1018.8 0.0
25/07:30am W 7 8 - - - - 10 Mostly clear - 14.0 1018.7 0.0
25/07:00am W 8 9 - - - - 10 Mostly clear - 12.3 1018.6 0.0
25/06:30am W 7 9 - - - - 10 Mostly clear - 11.1 1018.3 0.0
25/06:00am WNW 7 8 - - - - 10 Mostly clear - 10.8 1017.9 0.0
25/05:30am WNW 3 4 - - - - 10 - - 10.1 1017.3 0.0
25/05:00am W 3 5 - - - - 10 - - 10.6 1017.3 0.0
25/04:30am W 6 7 - - - - 10 - - 10.6 1017.3 0.0
25/04:00am WNW 5 6 - - - - 10 - - 10.4 1017.2 0.0
25/03:30am NW 2 5 - - - - 10 - - 10.9 1017.3 0.0
25/03:00am CALM 0 0 - - - - 10 - - 10.0 1017.3 0.0
25/02:30am SSW 5 7 - - - - 10 - - 11.4 1017.4 0.0
25/02:00am E 1 4 - - - - 10 - - 11.2 1017.5 0.0
25/01:30am SW 7 8 - - - - 10 - - 14.3 1017.4 0.0
25/01:00am SSW 6 7 - - - - 10 - - 14.3 1017.5 0.0
25/12:30am SSW 7 8 - - - - 10 - - 13.1 1017.4 0.0
25/12:00am W 5 8 - - - - 10 - - 11.2 1017.5 0.0
 
Date/Time
EST
Wind Sea
Height
m
Swell Vis
km
Cloud Weather Temp
°C
Press
hPa
Rain since
9am
mm
Dir  Spd
kts
Gust
kts
Height
m
Period
s
Dir
24/11:30pm NNW 5 6 - - - - 10 - - 11.2 1017.8 0.0
24/11:00pm W 5 6 - - - - 10 - - 11.8 1017.7 0.0
24/10:30pm WSW 4 5 - - - - 10 - - 12.9 1017.8 0.0
24/10:00pm WSW 1 4 - - - - 10 - - 12.8 1018.0 0.0
24/09:30pm WSW 6 7 - - - - 10 - - 14.1 1018.0 0.0
24/09:00pm NW 4 5 - - - - 10 - - 13.9 1017.7 0.0
24/08:30pm S 2 4 - - - - 10 - - 15.0 1017.6 0.0
24/08:00pm SSW 5 5 - - - - 10 - - 15.4 1017.2 0.0
24/07:30pm SSW 6 7 - - - - 10 - - 16.1 1016.9 0.0
24/07:00pm SW 8 10 - - - - 10 - - 17.6 1016.5 0.0
24/06:30pm SSW 7 10 - - - - 10 - - 17.6 1016.1 0.0
24/06:00pm SW 9 13 - - - - 10 - - 18.9 1015.8 0.0
24/05:30pm SW 11 15 - - - - 10 - - 19.8 1015.5 0.0
24/05:00pm SW 13 16 - - - - 10 - - 20.4 1015.2 0.0
24/04:30pm SW 10 15 - - - - 10 - - 20.9 1014.9 0.0
24/04:00pm SW 12 16 - - - - 10 - - 20.9 1014.5 0.0
24/03:30pm SW 13 18 - - - - 10 - - 21.1 1014.6 0.0
24/03:00pm SSW 13 17 - - - - 10 - - 21.5 1014.3 0.0
24/02:30pm SSW 14 21 - - - - 10 - - 21.0 1014.3 0.0
24/02:00pm SSW 13 18 - - - - 10 - - 20.8 1015.2 0.0
24/01:30pm SSW 16 20 - - - - 10 - - 20.4 1015.4 0.0
24/01:00pm SSW 11 18 - - - - 10 - - 20.4 1015.8 0.0
24/12:30pm SSW 14 20 - - - - 10 - - 19.5 1016.5 0.0
24/12:00pm S 12 20 - - - - 10 - - 19.6 1017.1 0.0
24/11:30am S 16 20 - - - - 10 - - 18.9 1017.4 0.0
24/11:00am SSW 17 22 - - - - 10 - - 18.3 1017.5 0.0
24/10:30am S 15 20 - - - - 10 - - 18.2 1018.1 0.0
24/10:00am SSW 14 18 - - - - 10 - - 17.1 1018.7 0.0
24/09:30am SSW 12 17 - - - - 10 - - 16.6 1019.1 0.0
24/09:00am SSW 10 15 - - - - 10 - - 16.6 1018.6 14.4
24/08:30am SSW 9 14 - - - - 10 - - 16.0 1018.1 14.4
24/08:00am S 7 10 - - - - 10 - - 15.1 1017.6 14.4
24/07:30am SSW 9 14 - - - - 10 - - 13.9 1017.3 14.4
24/07:00am SSW 8 11 - - - - 10 - - 13.0 1017.3 14.4
24/06:30am SW 10 15 - - - - 10 - - 13.4 1017.1 14.4
24/06:00am SW 8 13 - - - - 10 - - 13.2 1016.6 14.4
24/05:30am WSW 5 7 - - - - 10 - - 12.0 1016.0 14.4
24/05:00am WSW 5 7 - - - - 10 - - 12.6 1015.6 14.4
24/04:30am SSW 6 9 - - - - 10 - - 12.7 1015.4 14.4
24/04:00am WSW 6 8 - - - - 10 - - 11.9 1015.7 14.4
24/03:30am WSW 4 5 - - - - 10 - - 12.0 1014.9 14.4
24/03:00am WNW 5 6 - - - - 10 Cloudy - 11.4 1015.8 14.4
24/02:30am WNW 6 7 - - - - 10 - - 12.2 1015.6 14.4
24/02:04am WSW 10 14 - - - - 10 - - 12.9 1014.8 14.4
24/02:00am WSW 9 13 - - - - 10 - - 13.0 1016.8 14.4
24/01:30am SW 11 14 - - - - 10 - - 13.8 1016.5 14.4
24/01:10am SSW 10 14 - - - - 10 - - 13.6 1014.8 14.4
24/01:00am SW 8 12 - - - - 10 - - 13.8 1016.9 14.4
24/12:30am SW 11 13 - - - - 10 - - 13.2 1015.9 14.4
24/12:00am WSW 3 6 - - - - 10 Cloudy - 12.5 1016.9 14.4
 
Date/Time
EST
Wind Sea
Height
m
Swell Vis
km
Cloud Weather Temp
°C
Press
hPa
Rain since
9am
mm
Dir  Spd
kts
Gust
kts
Height
m
Period
s
Dir
23/11:30pm SSW 7 10 - - - - 10 - - 13.4 1016.3 14.4
23/11:00pm SSW 3 5 - - - - 10 - - 13.1 1016.9 14.4
23/10:30pm SSW 10 14 - - - - 10 - - 13.1 1017.0 14.4
23/10:00pm SW 10 13 - - - - 10 - - 13.1 1017.9 14.4
23/09:30pm SSW 10 16 - - - - 10 - - 13.1 1017.8 14.2
23/09:00pm SW 13 18 - - - - 10 Cloudy - 13.1 1017.4 14.2
23/08:30pm SSW 9 12 - - - - 10 - - 13.1 1017.2 14.2
23/08:00pm SW 13 17 - - - - 10 - - 13.4 1016.8 14.2
23/07:30pm S 10 15 - - - - 10 Partly cloudy - 13.5 1016.0 14.2
23/07:06pm ESE 7 10 - - - - 10 Partly cloudy - 13.2 1015.7 14.2
23/07:00pm SE 6 10 - - - - 10 Partly cloudy - 13.2 1013.7 14.2
23/06:56pm S 5 8 - - - - 10 Partly cloudy - 13.3 1014.3 14.2
23/06:30pm WSW 8 11 - - - - 10 Partly cloudy - 13.2 1016.3 14.2
23/06:00pm SSW 7 10 - - - - 10 Mostly cloudy Rain 13.0 1016.0 14.2
23/05:30pm SW 10 14 - - - - 10 Partly cloudy - 13.0 1015.3 13.8
23/05:00pm SW 9 11 - - - - 10 Cloudy - 13.2 1015.8 13.2
23/04:30pm SW 8 12 - - - - 10 Partly cloudy - 12.9 1014.7 12.8
23/04:00pm SW 9 12 - - - - 10 Partly cloudy - 13.0 1015.2 12.0
23/03:30pm SSW 10 14 - - - - 10 Partly cloudy - 13.0 1014.2 10.6
23/03:00pm SSW 9 12 - - - - 10 Cloudy Rain 13.4 1014.9 9.8
23/02:30pm SW 12 15 - - - - 10 Partly cloudy - 13.5 1015.4 8.8
23/02:00pm SSW 11 14 - - - - 10 Partly cloudy - 13.7 1015.1 7.8
23/01:30pm SSW 9 14 - - - - 10 Partly cloudy - 13.8 1015.0 7.0
23/01:00pm SW 11 15 - - - - 10 Partly cloudy - 13.8 1016.6 6.0
23/12:30pm SW 11 16 - - - - 10 Partly cloudy - 13.8 1016.3 5.6
23/12:00pm SW 7 11 - - - - 10 Cloudy Rain 13.9 1016.7 4.2
23/11:30am SSW 12 16 - - - - 10 Partly cloudy - 13.9 1016.9 3.4
23/11:00am SW 12 15 - - - - 10 Partly cloudy - 14.1 1017.2 2.0
23/10:30am SSW 13 17 - - - - 10 Partly cloudy - 14.0 1016.2 1.4

Other formats

Comma delimited format used in spreadsheet applications
http://www.bom.gov.au/fwo/IDQ60701/IDQ60701.94294.axf

JavaScript Object Notation format (JSON) in row-major order
http://www.bom.gov.au/fwo/IDQ60701/IDQ60701.94294.json

Data quality

Most of these data are generated automatically and are frequently updated. Quality checks on data are not normally performed. It is possible for incorrect values to appear. Refer to information at About Latest Weather Observations and please check the disclaimer before using these data.